Hlavní strana
METAR-TAF:

METAR-TAF

Letiště :

Kuvajt, Kuvajt

zeměpisná šířka: 29-13N, zeměpisná délka: 047-59E, výška: 55 m

Aktuální stav počasí

Zpráva byla vytvořena před 41 minutami, v 23:00 UTC
Bezvětří
Teplota 25°C
Vlhkost vzduchu 61%
Tlak 1014 hPa
Viditelnost: 6000 m
Jasno

METAR: OKBK 152300Z 00000KT 6000 SKC 25/17 Q1014 NOSIG

Čas: 02:41 (23:41 UTC)

Předpověď počasí

Zpráva byla vytvořena před 56 minutami, v 22:45 UTC
Předpověď platná od 16 v 00 UTC do 17 v 06 UTC
Jihojihovýchodní vítr 10 kt
Viditelnost: 6000 m
Dočasný
od 16 v 00 UTC do 16 v 06 UTC
vítr z různých směrů 3 kt
Viditelnost: 2000 m

TAF: OKBK 152245Z 1600/1706 16010KT 6000 NSC TEMPO 1600/1606 VRB03KT 2000 BR/HZ

Stav a předpovědi počasí z více než 4 000 letišť (zprávy METAR a TAF).

Červené a žluté tečky na mapě představují dostupné meteorologické stanice.

Když kurzor umístíte na tečku, zobrazí se název stanice.

Pak kliknutím zobrazíte stav a předpověď počasí.

Chcete-li změnit mapu, kliknutím na zelené tlačítko se znaménkem +mapu přiblížíte, kliknutím na zelené tlačítko se znaménkem – mapu oddálíte a kliknutím na zelené šipky přejdete na sousední mapy.


METAR-TAF: